Time;durP1;ratioP1;P1;durP2;ratioP2;P2;SDS_P1;SDS_P2;PMS_P1;PMS_P2;Temp;Humidity;BMP_temperature;BMP_pressure;BME280_temperature;BME280_humidity;BME280_pressure;Samples;Min_cycle;Max_cycle;Signal;HPM_P1;HPM_P2
2022/10/08 00:03:37;;;;;;;11.50;4.80;;;;;;;;;;4858766;23;20076;-91
2022/10/08 00:55:21;;;;;;;13.65;5.40;;;;;;;;;;5222493;23;20081;-90
2022/10/08 00:57:51;;;;;;;16.92;5.75;;;;;;;;;;4826341;29;20050;-91
2022/10/08 01:06:08;;;;;;;13.93;5.72;;;;;;;;;;556907;23;21102;-90
2022/10/08 01:08:47;;;;;;;15.10;5.30;;;;;;;;;;4834333;29;21718;-88
2022/10/08 01:45:31;;;;;;;12.90;3.42;;;;;;;;;;5554046;23;20027;31
2022/10/08 02:46:48;;;;;;;10.82;2.38;;;11.40;99.90;;;;;;4845763;24;20551;-90
2022/10/08 03:40:50;;;;;;;16.83;3.85;;;;;;;;;;5064438;23;20085;-90
2022/10/08 03:50:17;;;;;;;11.60;2.90;;;;;;;;;;4876097;23;20121;-87
2022/10/08 03:56:25;;;;;;;16.30;3.90;;;;;;;;;;4921914;23;20064;31
2022/10/08 04:54:46;;;;;;;14.95;4.88;;;;;;;;;;4813503;29;20058;-88
2022/10/08 04:57:25;;;;;;;14.88;5.47;;;;;;;;;;4799144;29;20129;-87
2022/10/08 05:32:49;;;;;;;20.42;4.43;;;;;;;;;;5077821;23;20049;-89
2022/10/08 05:35:15;;;;;;;22.75;4.97;;;;;;;;;;4846876;29;20120;-90
2022/10/08 05:44:01;;;;;;;20.10;4.75;;;;;;;;;;4846439;23;20090;-88
2022/10/08 05:46:28;;;;;;;13.80;3.65;;;;;;;;;;4829717;29;20080;-89
2022/10/08 06:00:42;;;;;;;15.32;4.40;;;;;;;;;;5033531;23;20053;-89
2022/10/08 06:53:11;;;;;;;;;;;;;;;;;;;;;
2022/10/08 07:14:49;;;;;;;13.05;2.70;;;;;;;;;;6170253;23;20075;-89
2022/10/08 07:17:15;;;;;;;;;;;;;;;;;;6139354;23;20025;-87
2022/10/08 07:57:57;;;;;;;10.35;2.72;;;;;;;;;;6159154;23;20025;-88
2022/10/08 08:00:23;;;;;;;10.57;2.20;;;;;;;;;;6152256;23;20045;-88
2022/10/08 08:14:36;;;;;;;11.00;1.90;;;;;;;;;;6134209;23;20069;-88
2022/10/08 08:17:33;;;;;;;8.00;1.75;;;12.80;99.90;;;;;;6139644;23;20026;-87
2022/10/08 08:19:59;;;;;;;8.60;1.75;;;;;;;;;;6088075;23;20025;-88
2022/10/08 08:22:27;;;;;;;7.10;1.42;;;;;;;;;;6113281;23;20018;-87
2022/10/08 08:27:30;;;;;;;11.75;1.92;;;;;;;;;;6119159;23;20508;-86
2022/10/08 08:39:38;;;;;;;5.82;1.60;;;;;;;;;;6175746;23;20350;-85
2022/10/08 08:48:23;;;;;;;18.58;3.03;;;;;;;;;;6182760;23;20355;-84
2022/10/08 08:54:23;;;;;;;14.55;2.60;;;;;;;;;;6123747;23;20067;-84
2022/10/08 08:56:51;;;;;;;15.55;2.60;;;;;;;;;;6155116;23;20438;-85
2022/10/08 08:59:25;;;;;;;9.07;1.77;;;;;;;;;;6181502;23;20541;-83
2022/10/08 09:05:39;;;;;;;7.95;1.52;;;;;;;;;;6151750;23;20061;-84
2022/10/08 09:09:10;;;;;;;8.38;1.70;;;;;;;;;;6058882;23;20042;-85
2022/10/08 09:11:38;;;;;;;11.55;2.17;;;;;;;;;;6054739;23;20511;-85
2022/10/08 09:24:20;;;;;;;7.72;1.40;;;;;;;;;;6146123;23;20052;-84
2022/10/08 09:26:46;;;;;;;8.55;1.75;;;;;;;;;;6149842;23;20014;-85
2022/10/08 09:32:40;;;;;;;7.32;1.38;;;;;;;;;;6118491;23;20061;-85
2022/10/08 09:35:09;;;;;;;5.97;1.40;;;;;;;;;;6094242;23;20076;-87
2022/10/08 09:37:45;;;;;;;14.98;2.03;;;;;;;;;;6121556;23;20022;-83
2022/10/08 09:40:11;;;;;;;8.50;1.67;;;;;;;;;;6076237;23;20026;-85
2022/10/08 09:42:37;;;;;;;8.70;1.15;;;;;;;;;;6128417;23;20025;-85
2022/10/08 09:45:21;;;;;;;14.35;2.08;;;;;;;;;;6100049;23;20462;-84
2022/10/08 09:48:07;;;;;;;12.90;2.53;;;;;;;;;;6074423;23;20057;-83
2022/10/08 09:50:36;;;;;;;15.75;2.38;;;;;;;;;;6119284;23;20032;-83
2022/10/08 09:53:02;;;;;;;9.10;2.03;;;;;;;;;;6115327;23;20029;-83
2022/10/08 09:55:35;;;;;;;14.65;2.72;;;;;;;;;;6093366;23;20116;-85
2022/10/08 09:58:15;;;;;;;12.77;1.55;;;;;;;;;;6089176;23;20064;-83
2022/10/08 10:01:00;;;;;;;11.20;2.40;;;;;;;;;;6140225;23;20032;-84
2022/10/08 10:03:27;;;;;;;11.02;1.75;;;;;;;;;;6144606;23;20092;-84
2022/10/08 10:05:54;;;;;;;10.25;1.63;;;;;;;;;;6150182;23;20028;-83
2022/10/08 10:08:39;;;;;;;18.02;1.98;;;;;;;;;;6149132;23;20563;-84
2022/10/08 10:11:05;;;;;;;12.32;1.60;;;;;;;;;;6149115;23;20426;-83
2022/10/08 10:13:35;;;;;;;10.50;1.67;;;;;;;;;;6143959;23;20025;-84
2022/10/08 10:16:30;;;;;;;15.20;1.83;;;;;;;;;;6146829;23;20028;-84
2022/10/08 10:18:56;;;;;;;10.93;1.85;;;;;;;;;;6143543;23;20060;-83
2022/10/08 10:21:26;;;;;;;18.63;2.25;;;;;;;;;;6146494;23;20017;-84
2022/10/08 10:24:12;;;;;;;13.38;2.10;;;;;;;;;;6175577;23;20025;-84
2022/10/08 10:30:15;;;;;;;13.65;2.80;;;;;;;;;;6056172;23;20038;-83
2022/10/08 10:33:18;;;;;;;18.15;2.33;;;;;;;;;;6072338;23;20025;-82
2022/10/08 10:36:09;;;;;;;13.20;2.63;;;;;;;;;;6157180;23;20061;-81
2022/10/08 10:38:37;;;;;;;9.95;2.03;;;;;;;;;;6146711;23;20436;-84
2022/10/08 11:00:09;;;;;;;17.80;2.10;;;;;;;;;;6191478;23;20117;-83
2022/10/08 11:02:57;;;;;;;11.82;2.20;;;;;;;;;;6128722;23;20379;-83
2022/10/08 11:06:00;;;;;;;8.65;1.13;;;;;;;;;;6181385;23;20053;-84
2022/10/08 11:08:41;;;;;;;10.23;1.80;;;;;;;;;;6154840;23;20043;-84
2022/10/08 11:11:16;;;;;;;23.33;3.13;;;;;;;;;;6155768;23;20024;-84
2022/10/08 11:14:00;;;;;;;10.45;1.90;;;;;;;;;;6183626;23;20048;-84
2022/10/08 11:16:26;;;;;;;;;;;;;;;;;;6158318;23;20627;-84
2022/10/08 11:19:17;;;;;;;11.55;1.60;;;;;;;;;;6180959;23;19927;-84
2022/10/08 11:22:06;;;;;;;9.10;1.52;;;;;;;;;;6156429;23;20041;-83
2022/10/08 11:24:47;;;;;;;10.60;1.70;;;;;;;;;;6181780;23;20021;-85
2022/10/08 11:27:32;;;;;;;7.15;1.50;;;;;;;;;;6181602;23;20023;-81
2022/10/08 11:30:17;;;;;;;9.35;1.83;;;;;;;;;;6181966;23;20021;-82
2022/10/08 11:32:44;;;;;;;13.02;1.88;;;;;;;;;;6130550;23;20063;-84
2022/10/08 11:35:11;;;;;;;10.18;2.10;;;;;;;;;;6180187;23;20051;-84
2022/10/08 11:37:43;;;;;;;13.88;2.20;;;;;;;;;;6177541;23;20473;-84
2022/10/08 11:40:18;;;;;;;8.40;1.38;;;;;;;;;;6181171;23;20037;-84
2022/10/08 11:42:47;;;;;;;10.02;1.55;;;;;;;;;;6154749;23;20029;-84
2022/10/08 11:45:24;;;;;;;11.57;2.65;;;;;;;;;;6184573;23;20028;-84
2022/10/08 11:47:54;;;;;;;13.90;2.08;;;;;;;;;;6155955;23;20465;-83
2022/10/08 11:50:34;;;;;;;12.60;1.88;;;;;;;;;;6157353;23;20021;-84
2022/10/08 11:53:17;;;;;;;13.95;2.10;;;;;;;;;;6182033;23;20024;-85
2022/10/08 11:55:53;;;;;;;10.18;2.17;;;;;;;;;;6180991;23;20016;-84
2022/10/08 11:58:26;;;;;;;14.48;2.65;;;;;;;;;;6180612;23;20450;-84
2022/10/08 12:07:50;;;;;;;9.98;2.65;;;;;;;;;;6153640;23;20021;-85
2022/10/08 12:10:35;;;;;;;9.27;1.90;;;;;;;;;;6155590;23;20017;-82
2022/10/08 12:13:02;;;;;;;7.15;1.80;;;;;;;;;;6161430;23;20017;-83
2022/10/08 12:15:47;;;;;;;8.27;1.50;;;;;;;;;;6160534;23;20025;-83
2022/10/08 12:18:19;;;;;;;14.70;1.83;;;;;;;;;;6151946;23;20029;-83
2022/10/08 12:21:09;;;;;;;11.00;1.50;;;;;;;;;;6150551;23;20013;-84
2022/10/08 12:23:37;;;;;;;17.15;1.80;;;;;;;;;;6095080;23;20049;-84
2022/10/08 12:26:03;;;;;;;8.20;1.77;;;;;;;;;;6148401;23;20021;-84
2022/10/08 12:28:45;;;;;;;12.63;1.85;;;;;;;;;;6148217;23;20053;-83
2022/10/08 12:31:18;;;;;;;10.05;1.67;;;;;;;;;;6148285;23;20064;-82
2022/10/08 12:34:02;;;;;;;9.07;1.60;;;;;;;;;;6147889;23;20033;-83
2022/10/08 12:36:40;;;;;;;11.43;1.55;;;;;;;;;;6148350;23;20077;-84
2022/10/08 12:39:16;;;;;;;10.93;1.60;;;;;;;;;;6148012;23;20112;-83
2022/10/08 12:41:46;;;;;;;10.52;2.17;;;;;;;;;;6147814;23;20489;-83
2022/10/08 12:44:22;;;;;;;13.32;2.55;;;;;;;;;;6149164;23;20024;-83
2022/10/08 12:47:27;;;;;;;10.35;2.20;;;;;;;;;;6147125;23;20021;-85
2022/10/08 12:49:53;;;;;;;;;;;;;;;;;;6029811;23;20030;-83
2022/10/08 12:52:22;;;;;;;11.20;1.75;;;;;;;;;;6027808;23;20299;-82
2022/10/08 12:55:06;;;;;;;10.32;1.67;;;;;;;;;;6070452;23;20025;-82
2022/10/08 12:57:37;;;;;;;13.77;2.17;;;;;;;;;;6144946;23;20027;-83
2022/10/08 13:00:25;;;;;;;15.20;3.03;;;;;;;;;;6146545;23;20017;-84
2022/10/08 13:03:19;;;;;;;7.95;1.88;;;;;;;;;;6143003;23;20048;-82
2022/10/08 13:05:48;;;;;;;12.40;2.13;;;;;;;;;;6143889;23;20359;-83
2022/10/08 13:08:17;;;;;;;12.90;2.17;;;;;;;;;;6147793;23;20120;-83
2022/10/08 13:10:46;;;;;;;11.43;2.35;;;;;;;;;;6155156;23;20031;-82
2022/10/08 13:13:38;;;;;;;12.85;2.22;;;;;;;;;;6135213;23;20665;-83
2022/10/08 13:16:54;;;;;;;17.17;2.00;;;;;;;;;;6159793;23;20033;-82
2022/10/08 13:19:37;;;;;;;6.82;1.45;;;;;;;;;;6032418;23;20541;-82
2022/10/08 13:22:38;;;;;;;6.00;1.65;;;;;;;;;;6006314;23;20063;-82
2022/10/08 13:25:27;;;;;;;6.18;1.60;;;;;;;;;;5997788;23;20449;-81
2022/10/08 13:28:21;;;;;;;15.80;2.30;;;;;;;;;;6008176;23;20058;-82
2022/10/08 13:34:41;;;;;;;11.68;1.92;;;;;;;;;;6030649;23;20058;-81
2022/10/08 13:37:26;;;;;;;13.23;1.85;;;;;;;;;;6053721;23;20037;-81
2022/10/08 13:39:54;;;;;;;12.65;1.83;;;;;;;;;;6145863;23;20026;-82
2022/10/08 13:42:21;;;;;;;12.77;2.20;;;;;;;;;;6147519;23;20017;-82
2022/10/08 13:44:47;;;;;;;11.15;2.08;;;;;;;;;;6146069;23;20026;-83
2022/10/08 13:47:28;;;;;;;12.07;1.70;;;;;;;;;;6149348;23;20027;-83
2022/10/08 13:50:00;;;;;;;13.23;2.15;;;;;;;;;;6147847;23;20021;-82
2022/10/08 13:52:31;;;;;;;14.23;2.20;;;;;;;;;;6147782;23;20397;-83
2022/10/08 13:55:01;;;;;;;14.63;2.08;;;;;;;;;;6149377;23;20029;-82
2022/10/08 13:57:30;;;;;;;11.93;2.58;;;;;;;;;;6147335;23;20017;-82
2022/10/08 14:00:14;;;;;;;13.52;1.90;;;;;;;;;;6144842;23;20022;-82
2022/10/08 14:02:40;;;;;;;11.82;2.35;;;;;;;;;;6161365;23;20541;-84
2022/10/08 14:05:07;;;;;;;11.65;1.90;;;;;;;;;;6177962;23;20021;-84
2022/10/08 14:07:46;;;;;;;10.10;1.65;;;;;;;;;;6174775;23;20020;-83
2022/10/08 14:10:17;;;;;;;13.77;2.03;;;;;;;;;;6177470;23;20043;-83
2022/10/08 14:12:49;;;;;;;13.35;2.00;;;;;;;;;;6175338;23;20747;-84
2022/10/08 14:15:19;;;;;;;10.30;1.70;;;;;;;;;;6178100;23;20021;-83
2022/10/08 14:17:45;;;;;;;7.22;1.75;;;;;;;;;;6149828;23;20518;-82
2022/10/08 14:20:11;;;;;;;6.38;1.55;;;;;;;;;;6178134;23;20043;-83
2022/10/08 14:22:38;;;;;;;7.30;1.70;;;;;;;;;;6167287;23;20039;-82
2022/10/08 14:25:14;;;;;;;7.82;1.73;;;;;;;;;;6141245;23;20021;-83
2022/10/08 14:27:40;;;;;;;9.10;1.70;;;;;;;;;;6128689;23;20388;-84
2022/10/08 14:30:07;;;;;;;9.07;1.65;;;;;;;;;;6178001;23;20516;-84
2022/10/08 14:32:33;;;;;;;10.30;1.48;;;;;;;;;;6127572;23;20382;-81
2022/10/08 14:35:05;;;;;;;11.10;1.40;;;;;;;;;;6150055;23;20099;-82
2022/10/08 14:37:35;;;;;;;20.42;2.95;;;;;;;;;;6178437;23;20052;-83
2022/10/08 14:40:01;;;;;;;19.05;3.03;;;;;;;;;;6147794;23;20043;-83
2022/10/08 14:42:27;;;;;;;10.15;2.13;;;;;;;;;;6175095;23;20061;-83
2022/10/08 14:44:53;;;;;;;14.63;2.40;;;;;;;;;;6173390;23;20021;-82
2022/10/08 14:47:32;;;;;;;16.45;2.25;;;;;;;;;;6175740;23;20083;-83
2022/10/08 14:49:58;;;;;;;12.40;2.10;;;;;;;;;;6174522;23;20796;-82
2022/10/08 14:52:24;;;;;;;13.77;2.30;;;;;;;;;;6177608;23;20021;-84
2022/10/08 14:54:50;;;;;;;17.63;2.47;;;;;;;;;;6176430;23;20027;-83
2022/10/08 14:57:16;;;;;;;23.40;2.83;;;;;;;;;;6180134;23;20056;-83
2022/10/08 14:59:45;;;;;;;14.32;2.28;;;;;;;;;;6177597;23;20025;-80
2022/10/08 15:02:11;;;;;;;13.25;1.90;;;;;;;;;;6128291;23;20025;-81
2022/10/08 15:04:38;;;;;;;14.80;2.80;;;;;;;;;;6152075;23;20091;-82
2022/10/08 15:07:04;;;;;;;11.57;1.70;;;;;;;;;;6180873;23;20082;-82
2022/10/08 15:09:31;;;;;;;13.98;2.55;;;;;;;;;;6153473;23;20017;-83
2022/10/08 15:11:59;;;;;;;10.80;2.05;;;;;;;;;;6154809;23;20021;-82
2022/10/08 15:14:25;;;;;;;6.55;2.00;;;;;;;;;;6179802;23;20021;-82
2022/10/08 15:16:51;;;;;;;13.52;2.50;;;;;;;;;;6179546;23;20039;-83
2022/10/08 15:19:18;;;;;;;11.45;2.78;;;;;;;;;;6153797;23;20512;-83
2022/10/08 15:21:45;;;;;;;13.40;3.53;;;;;;;;;;6153317;23;20076;-82
2022/10/08 15:24:11;;;;;;;10.45;2.65;;;;;;;;;;6181686;23;20031;-83
2022/10/08 15:26:37;;;;;;;8.93;2.40;;;;;;;;;;6175310;23;20028;-84
2022/10/08 15:29:03;;;;;;;14.27;2.25;;;;;;;;;;6127217;23;20052;-83
2022/10/08 15:31:32;;;;;;;12.98;2.22;;;;;;;;;;6152429;23;20020;-83
2022/10/08 15:33:58;;;;;;;14.65;2.47;;;;;;;;;;6181315;23;20025;-83
2022/10/08 15:36:25;;;;;;;15.15;2.22;;;;;;;;;;6151473;23;20017;-83
2022/10/08 15:38:59;;;;;;;13.00;3.33;;;;;;;;;;6155711;23;20052;-82
2022/10/08 15:44:10;;;;;;;22.02;3.17;;;;;;;;;;6195479;23;20420;-83
2022/10/08 15:46:36;;;;;;;20.20;2.95;;;;;;;;;;6166584;23;20031;-81
2022/10/08 15:49:03;;;;;;;10.23;1.95;;;;;;;;;;6135519;23;20457;-82
2022/10/08 15:51:30;;;;;;;9.02;2.22;;;;;;;;;;6142713;23;20105;-81
2022/10/08 15:53:58;;;;;;;13.70;2.45;;;;;;;;;;6117811;23;20030;-81
2022/10/08 15:56:24;;;;;;;10.90;2.13;;;;;;;;;;6120531;23;20025;-82
2022/10/08 15:58:50;;;;;;;19.77;2.95;;;;;;;;;;6141897;23;20032;-82
2022/10/08 16:01:18;;;;;;;10.75;2.05;;;;;;;;;;6147923;23;20017;-82
2022/10/08 16:03:48;;;;;;;11.75;2.17;;;;;;;;;;6118784;23;20463;-82
2022/10/08 16:06:16;;;;;;;19.15;3.10;;;;;;;;;;6147687;23;20021;-83
2022/10/08 16:08:43;;;;;;;9.18;1.92;;;;;;;;;;6173796;23;20013;-82
2022/10/08 16:11:26;;;;;;;8.88;2.22;;;;;;;;;;6154731;23;20023;-80
2022/10/08 16:13:53;;;;;;;14.50;2.53;;;;;;;;;;6175717;23;20021;-82
2022/10/08 16:16:20;;;;;;;12.32;1.88;;;;;;;;;;6175954;23;20052;-82
2022/10/08 16:18:49;;;;;;;14.70;2.55;;;;;;;;;;6175743;23;20021;-82
2022/10/08 16:21:16;;;;;;;12.68;2.08;;;;;;;;;;6176255;23;20052;-83
2022/10/08 16:23:42;;;;;;;12.07;2.42;;;;;;;;;;6178626;23;20020;-83
2022/10/08 16:26:10;;;;;;;12.18;2.83;;;;;;;;;;6149296;23;20013;-82
2022/10/08 16:28:39;;;;;;;16.00;2.67;;;;;;;;;;6178332;23;20013;-82
2022/10/08 16:31:05;;;;;;;6.38;1.90;;;;;;;;;;6174027;23;20470;-83
2022/10/08 16:33:34;;;;;;;13.05;2.47;;;;;;;;;;6176616;23;20108;-81
2022/10/08 16:36:01;;;;;;;13.73;1.92;;;;;;;;;;6174058;23;20021;-83
2022/10/08 16:38:28;;;;;;;13.35;1.95;;;;;;;;;;6150562;23;20310;-81
2022/10/08 16:40:55;;;;;;;8.40;1.83;;;;;;;;;;6177854;23;20024;-81
2022/10/08 16:43:21;;;;;;;10.57;1.70;;;;;;;;;;6149964;23;20044;-81
2022/10/08 16:45:47;;;;;;;10.05;1.73;;;;;;;;;;6178743;23;20481;-82
2022/10/08 16:48:13;;;;;;;10.02;1.73;;;;;;;;;;6175114;23;20021;-82
2022/10/08 16:50:40;;;;;;;10.40;1.60;;;;;;;;;;6177239;23;20032;-83
2022/10/08 16:53:08;;;;;;;8.52;1.40;;;;;;;;;;6176933;23;20025;-81
2022/10/08 16:55:34;;;;;;;10.70;1.77;;;;;;;;;;6178853;23;20466;-81
2022/10/08 16:58:01;;;;;;;10.80;2.35;;;;;;;;;;6176016;23;20021;-81
2022/10/08 17:00:27;;;;;;;13.35;2.30;;;;;;;;;;6150880;23;20063;-81
2022/10/08 17:02:53;;;;;;;16.38;2.03;;;;;;;;;;6175111;23;20089;-82
2022/10/08 17:05:19;;;;;;;12.63;1.85;;;;;;;;;;6150808;23;20036;-81
2022/10/08 17:07:45;;;;;;;9.57;1.90;;;;;;;;;;6150594;23;20024;-81
2022/10/08 17:10:11;;;;;;;14.27;4.20;;;;;;;;;;6177414;23;20123;-82
2022/10/08 17:12:38;;;;;;;14.15;3.30;;;;;;;;;;6177896;23;20025;-80
2022/10/08 17:15:04;;;;;;;9.25;2.50;;;;;;;;;;6150708;23;20056;-81
2022/10/08 17:17:31;;;;;;;7.20;1.77;;;;;;;;;;6178876;23;20017;-81
2022/10/08 17:19:57;;;;;;;10.85;2.58;;;;;;;;;;6176229;23;20047;-81
2022/10/08 17:22:30;;;;;;;10.35;2.22;;;;;;;;;;6177155;23;20071;-81
2022/10/08 17:24:56;;;;;;;9.45;1.85;;;;;;;;;;6125740;23;20017;-81
2022/10/08 17:27:22;;;;;;;9.85;2.05;;;;;;;;;;6152873;23;20021;-82
2022/10/08 17:29:54;;;;;;;10.05;2.13;;;;;;;;;;6175930;23;20017;-82
2022/10/08 17:32:21;;;;;;;10.48;1.90;;;;;;;;;;6177837;23;20024;-81
2022/10/08 17:34:47;;;;;;;9.25;1.80;;;;;;;;;;6124581;23;20145;-82
2022/10/08 17:37:13;;;;;;;13.27;2.20;;;;;;;;;;6177685;23;20017;-81
2022/10/08 17:39:39;;;;;;;8.60;2.17;;;;;;;;;;6149171;23;20021;-81
2022/10/08 17:42:11;;;;;;;5.95;1.73;;;;;;;;;;6177229;23;20017;-81
2022/10/08 17:44:37;;;;;;;6.53;1.70;;;;;;;;;;6178019;23;20462;-82
2022/10/08 17:47:03;;;;;;;6.05;2.17;;;;;;;;;;6175672;23;20017;-81
2022/10/08 17:49:31;;;;;;;8.85;1.77;;;;;;;;;;6178063;23;20021;-82
2022/10/08 17:51:57;;;;;;;16.98;2.05;;;;;;;;;;6174963;23;20021;-83
2022/10/08 17:54:23;;;;;;;16.88;2.22;;;;;;;;;;6150952;23;20560;-83
2022/10/08 17:56:49;;;;;;;11.73;2.03;;;;;;;;;;6177139;23;20064;-82
2022/10/08 17:59:16;;;;;;;13.70;2.67;;;;;;;;;;6153510;23;20442;-83
2022/10/08 18:01:43;;;;;;;10.85;1.83;;;;;;;;;;6150236;23;20021;-81
2022/10/08 18:04:10;;;;;;;8.35;2.03;;;;;;;;;;6151785;23;20378;-82
2022/10/08 18:06:41;;;;;;;6.45;2.08;;;;;;;;;;6182883;23;20013;-83
2022/10/08 18:09:11;;;;;;;10.13;1.92;;;;;;;;;;6183405;23;20100;-84
2022/10/08 18:11:39;;;;;;;10.63;2.15;;;;;;;;;;6161943;23;20049;-82
2022/10/08 18:14:08;;;;;;;8.20;1.92;;;;;;;;;;6192862;23;20736;-83
2022/10/08 18:16:35;;;;;;;10.35;1.83;;;;;;;;;;6166238;23;20035;-84
2022/10/08 18:19:02;;;;;;;10.82;1.83;;;;;;;;;;6184751;23;20047;-83
2022/10/08 18:24:12;;;;;;;12.30;2.15;;;;;;;;;;6155199;23;20036;-84
2022/10/08 18:26:39;;;;;;;10.57;2.30;;;;;;;;;;6181377;23;20028;-82
2022/10/08 18:29:14;;;;;;;16.52;2.58;;;;;;;;;;6157920;23;20021;-83
2022/10/08 18:31:41;;;;;;;15.00;2.00;;;;;;;;;;6182034;23;20021;-83
2022/10/08 18:36:43;;;;;;;11.30;1.95;;;;;;;;;;6182485;23;20121;-83
2022/10/08 18:39:11;;;;;;;8.38;1.77;;;;;;;;;;6153139;23;20087;-82
2022/10/08 18:41:40;;;;;;;13.45;1.80;;;;;;;;;;6181361;23;20926;-81
2022/10/08 18:44:06;;;;;;;11.57;2.20;;;;;;;;;;6181612;23;20056;-82
2022/10/08 18:46:33;;;;;;;9.65;1.80;;;;;;;;;;6132483;23;20044;-83
2022/10/08 18:49:00;;;;;;;14.30;2.05;;;;;;;;;;6184734;23;20017;-83
2022/10/08 18:51:34;;;;;;;8.93;1.35;;;;;;;;;;6165648;23;20021;-84
2022/10/08 18:54:02;;;;;;;;;;;11.40;99.90;;;;;;6192616;23;20024;-84
2022/10/08 18:56:30;;;;;;;14.15;2.28;;;;;;;;;;6164884;23;19900;-85
2022/10/08 18:59:10;;;;;;;8.68;2.10;;;;;;;;;;6189574;23;20063;-83
2022/10/08 19:01:39;;;;;;;10.70;2.15;;;;;;;;;;6189535;23;20048;-84
2022/10/08 19:04:19;;;;;;;9.43;1.98;;;;;;;;;;6164468;23;20028;-83
2022/10/08 19:06:49;;;;;;;11.07;2.08;;;;;;;;;;6194090;23;20024;-83
2022/10/08 19:09:22;;;;;;;11.70;2.20;;;;;;;;;;6165526;23;20021;-83
2022/10/08 19:11:49;;;;;;;9.68;2.03;;;;;;;;;;6192772;23;20039;-84
2022/10/08 19:14:20;;;;;;;10.68;2.05;;;;;;;;;;6160236;23;20013;-83
2022/10/08 19:16:49;;;;;;;14.70;2.25;;;;;;;;;;6182245;23;20130;-83
2022/10/08 19:19:30;;;;;;;11.45;3.22;;;;;;;;;;6167090;23;20021;-84
2022/10/08 19:22:05;;;;;;;10.13;2.35;;;;;;;;;;6137028;23;20025;-84
2022/10/08 19:24:31;;;;;;;14.63;2.83;;;;;;;;;;6162068;23;20025;-83
2022/10/08 19:27:00;;;;;;;8.80;2.25;;;;;;;;;;6178932;23;20088;-83
2022/10/08 19:29:34;;;;;;;16.88;2.70;;;;;;;;;;6188106;23;20117;-83
2022/10/08 19:32:02;;;;;;;16.50;2.95;;;;;;;;;;6189598;23;20021;-83
2022/10/08 19:34:28;;;;;;;10.07;2.63;;;;;;;;;;6187418;23;20100;-82
2022/10/08 19:36:54;;;;;;;8.73;2.47;;;;;;;;;;6187599;23;20021;-82
2022/10/08 19:39:26;;;;;;;11.70;2.38;;;;;;;;;;6168693;23;20029;-83
2022/10/08 19:41:53;;;;;;;8.07;1.70;;;;;;;;;;6192704;23;20807;-84
2022/10/08 19:44:29;;;;;;;11.18;2.55;;;;;;;;;;6143421;23;20028;-85
2022/10/08 19:46:56;;;;;;;12.32;2.33;;;;;;;;;;6189357;23;20029;-85
2022/10/08 19:49:22;;;;;;;13.52;2.05;;;;;;;;;;6192601;23;20021;-84
2022/10/08 19:51:57;;;;;;;10.32;2.13;;;;;;;;;;6191157;23;20016;-82
2022/10/08 19:54:26;;;;;;;10.63;2.15;;;;;;;;;;6195426;23;20005;-83
2022/10/08 19:57:08;;;;;;;7.88;2.15;;;;;;;;;;6141586;23;20022;-84
2022/10/08 19:59:36;;;;;;;12.77;2.63;;;;;;;;;;6166869;23;20025;-83
2022/10/08 20:02:02;;;;;;;6.88;2.03;;;;;;;;;;6181353;23;20032;-83
2022/10/08 20:04:36;;;;;;;9.38;2.00;;;;;;;;;;6177276;23;20020;-82
2022/10/08 20:07:03;;;;;;;11.15;2.90;;;;;;;;;;6149853;23;20101;-83
2022/10/08 20:09:29;;;;;;;9.95;2.45;;;;;;;;;;6149881;23;20110;-82
2022/10/08 20:12:02;;;;;;;10.27;2.28;;;;;;;;;;6149136;23;20490;-83
2022/10/08 20:14:28;;;;;;;6.93;1.98;;;;;;;;;;6174823;23;20021;-82
2022/10/08 20:16:54;;;;;;;13.93;2.40;;;;;;;;;;6175630;23;20025;-83
2022/10/08 20:19:21;;;;;;;13.43;2.75;;;;;;;;;;6172702;23;20025;-83
2022/10/08 20:21:48;;;;;;;16.88;3.20;;;;;;;;;;6177642;23;20021;-83
2022/10/08 20:24:15;;;;;;;10.73;2.42;;;;;;;;;;6148917;23;20029;-82
2022/10/08 20:26:50;;;;;;;9.57;2.33;;;;;;;;;;6146100;23;20786;-83
2022/10/08 20:29:18;;;;;;;11.98;3.03;;;;;;;;;;6177430;23;20032;-82
2022/10/08 20:31:48;;;;;;;14.30;2.50;;;;;;;;;;6170697;23;20020;-83
2022/10/08 20:34:16;;;;;;;17.73;3.30;;;;;;;;;;6175862;23;20020;-84
2022/10/08 20:36:43;;;;;;;15.23;2.55;;;;;;;;;;6180488;23;20029;-83
2022/10/08 20:39:10;;;;;;;13.98;2.42;;;;;;;;;;6151600;23;20535;-83
2022/10/08 20:41:36;;;;;;;11.50;2.45;;;;;;;;;;6177945;23;20023;-83
2022/10/08 20:44:04;;;;;;;10.23;2.10;;;;;;;;;;6179327;23;20640;-83
2022/10/08 20:46:36;;;;;;;12.02;2.85;;;;;;;;;;6177253;23;20032;-83
2022/10/08 20:49:03;;;;;;;15.43;2.63;;;;;;;;;;6154047;23;20466;-83
2022/10/08 20:51:30;;;;;;;9.95;2.72;;;;;;;;;;6178329;23;20335;-83
2022/10/08 20:53:57;;;;;;;13.73;3.78;;;;;;;;;;6187894;23;20019;-82
2022/10/08 20:56:23;;;;;;;13.45;3.63;;;;;;;;;;6187506;23;20020;-84
2022/10/08 20:58:50;;;;;;;13.77;3.67;;;;;;;;;;6190957;23;20036;-83
2022/10/08 21:01:17;;;;;;;10.05;2.78;;;;;;;;;;6188204;23;20019;-84
2022/10/08 21:03:53;;;;;;;13.70;3.22;;;;;;;;;;6178036;23;20450;-84
2022/10/08 21:06:24;;;;;;;13.85;2.78;;;;;;;;;;6150716;23;20016;-84
2022/10/08 21:08:51;;;;;;;16.63;2.95;;;;;;;;;;6173649;23;20029;-82
2022/10/08 21:11:19;;;;;;;12.50;2.90;;;;;;;;;;6178432;23;20477;-83
2022/10/08 21:13:45;;;;;;;9.15;2.28;;;;;;;;;;6175716;23;20071;-83
2022/10/08 21:16:16;;;;;;;16.65;2.67;;;;;;;;;;6151031;23;20017;-84
2022/10/08 21:18:42;;;;;;;17.73;3.20;;;;;;;;;;6174237;23;20027;-82
2022/10/08 21:21:19;;;;;;;15.18;4.22;;;;;;;;;;6151496;23;20017;-83
2022/10/08 21:23:47;;;;;;;12.38;3.38;;;;;;;;;;6174464;23;20021;-82
2022/10/08 21:26:27;;;;;;;12.00;3.38;;;;;;;;;;6174868;23;20020;-83
2022/10/08 21:29:01;;;;;;;15.18;3.72;;;;;;;;;;6177199;23;20025;-83
2022/10/08 21:31:45;;;;;;;10.75;3.65;;;;;;;;;;6147359;23;20735;-85
2022/10/08 21:34:18;;;;;;;21.30;4.60;;;;;;;;;;6148038;23;20021;-84
2022/10/08 21:36:44;;;;;;;12.30;4.38;;;;;;;;;;6117790;23;20088;-84
2022/10/08 21:39:21;;;;;;;13.82;4.00;;;;;;;;;;6147824;23;20017;-85
2022/10/08 21:41:47;;;;;;;11.00;3.80;;;;;;;;;;6144470;23;20073;-84
2022/10/08 21:44:19;;;;;;;15.80;4.38;;;;;;;;;;6147647;23;20100;-84
2022/10/08 21:47:11;;;;;;;17.38;4.95;;;;;;;;;;6119123;23;20049;-84
2022/10/08 21:49:50;;;;;;;13.50;3.80;;;;;;;;;;6080263;23;20047;-85
2022/10/08 21:52:16;;;;;;;10.82;3.92;;;;;;;;;;6115836;23;20459;-85
2022/10/08 21:54:48;;;;;;;18.95;4.75;;;;;;;;;;6092165;23;20351;-85
2022/10/08 21:57:14;;;;;;;14.73;5.10;;;;;;;;;;6119689;23;20021;-85
2022/10/08 21:59:40;;;;;;;16.05;4.57;;;;;;;;;;6145743;23;20021;-85
2022/10/08 22:02:06;;;;;;;9.15;4.20;;;;;;;;;;6144383;23;20024;-84
2022/10/08 22:04:42;;;;;;;13.63;4.40;;;;;;;;;;6120179;23;20018;-84
2022/10/08 22:07:11;;;;;;;13.38;4.25;;;;;;;;;;6120551;23;20033;-84
2022/10/08 22:09:37;;;;;;;11.73;3.70;;;;;;;;;;6095718;23;20021;-84
2022/10/08 22:12:18;;;;;;;12.68;4.00;;;;;;;;;;6116278;23;20529;-85
2022/10/08 22:14:44;;;;;;;10.43;4.18;;;;;;;;;;6092396;23;20060;-84
2022/10/08 22:17:16;;;;;;;13.35;4.13;;;;;;;;;;6139917;23;20322;-85
2022/10/08 22:19:48;;;;;;;9.95;3.80;;;;;;;;;;6140083;23;20033;-85
2022/10/08 22:22:15;;;;;;;10.52;4.07;;;;;;;;;;6116237;23;20463;-84
2022/10/08 22:24:47;;;;;;;16.83;5.13;;;;;;;;;;6115993;23;20025;-84
2022/10/08 22:27:25;;;;;;;12.73;4.10;;;;;;;;;;6092758;23;20021;-85
2022/10/08 22:29:57;;;;;;;12.48;4.22;;;;;;;;;;6146777;23;20065;-83
2022/10/08 22:32:36;;;;;;;15.70;4.03;;;;;;;;;;6117071;23;20473;-84
2022/10/08 22:35:02;;;;;;;11.48;4.78;;;;;;;;;;6154283;23;20023;-84
2022/10/08 22:37:28;;;;;;;13.98;4.25;;;;;;;;;;6146682;23;20461;-85
2022/10/08 22:40:03;;;;;;;17.90;4.00;;;;;;;;;;6175484;23;20028;-84
2022/10/08 22:42:29;;;;;;;17.15;4.13;;;;;;;;;;6172969;23;20029;-84
2022/10/08 22:45:05;;;;;;;13.00;3.80;;;;;;;;;;6174439;23;20029;-85
2022/10/08 22:47:31;;;;;;;10.35;3.50;;;;;;;;;;6172994;23;20926;-84
2022/10/08 22:49:57;;;;;;;15.80;3.40;;;;;;;;;;6149084;23;20025;-84
2022/10/08 22:52:23;;;;;;;10.05;3.92;;;;;;;;;;6170852;23;20029;-84
2022/10/08 22:54:52;;;;;;;12.90;3.85;;;;;;;;;;6173523;23;20426;-84
2022/10/08 22:57:19;;;;;;;13.10;3.88;;;;;;;;;;6169819;23;20111;-85
2022/10/08 22:59:45;;;;;;;9.15;3.85;;;;;;;;;;6175120;23;20025;-85
2022/10/08 23:02:11;;;;;;;15.63;4.47;;;;;;;;;;6118615;23;20021;-84
2022/10/08 23:04:37;;;;;;;20.40;4.00;;;;;;;;;;6172342;23;20021;-84
2022/10/08 23:07:03;;;;;;;10.98;4.25;;;;;;;;;;6171227;23;20525;-85
2022/10/08 23:09:29;;;;;;;8.13;3.58;;;;;;;;;;6147087;23;20021;-84
2022/10/08 23:11:55;;;;;;;11.77;3.72;;;;;;;;;;6170705;23;20096;-85
2022/10/08 23:14:30;;;;;;;15.70;4.15;;;;;;;;;;6148574;23;20017;-85
2022/10/08 23:16:56;;;;;;;12.07;3.38;;;;;;;;;;6122418;23;20025;-84
2022/10/08 23:19:26;;;;;;;11.65;3.75;;;;;;;;;;6176547;23;20021;-83
2022/10/08 23:21:52;;;;;;;16.95;3.97;;;;;;;;;;6175636;23;20032;-86
2022/10/08 23:24:30;;;;;;;10.90;3.38;;;;;;;;;;6158681;23;20013;-85
2022/10/08 23:34:05;;;;;;;19.00;3.70;;;;;;;;;;6179453;23;20044;-85
2022/10/08 23:36:50;;;;;;;10.05;3.45;;;;;;;;;;6150109;23;20021;-85
2022/10/08 23:39:28;;;;;;;11.85;3.78;;;;;;;;;;6151238;23;20075;-85
2022/10/08 23:41:54;;;;;;;12.07;3.95;;;;;;;;;;6175731;23;20013;-84
2022/10/08 23:44:24;;;;;;;11.70;3.85;;;;;;;;;;6151494;23;20029;-85